Flight Briefing for CPX221

Departure Arrival
Sacramento International Airport (KSMF)
Click to view FAA NOTAMS
March Air Reserve Base (KRIV)
Click to view FAA NOTAMS
Departure Time Arrival Time
N/A N/A
Aircraft Distance
B767-300BDSF 362nm
Departure METAR Arrival METAR
KSMF 181453Z 32006KT 10SM CLR 07/07 A3001 RMK AO2 SLP161 T00720067 52007 KRIV 181458Z AUTO 00000KT 10SM CLR 08/08 A3001 RMK AO2 SLP160 T00790079 52010
Suggested Route
FTHIL2 FRA EHF J65 PMD MARCH4


View recent IFR Routes data
Notes



Charts and Procedures

Charts for KSMF
No chart available
Charts for KRIV
No chart available

Windy.com Weather Map